Time;durP1;ratioP1;P1;durP2;ratioP2;P2;SDS_P1;SDS_P2;PMS_P1;PMS_P2;Temp;Humidity;BMP_temperature;BMP_pressure;BME280_temperature;BME280_humidity;BME280_pressure;Samples;Min_cycle;Max_cycle;Signal;HPM_P1;HPM_P2
2021/09/28 00:00:27;;;;;;;23.45;18.05;;;;;;;15.73;100.00;101101.16;4982654;28;20095;-81
2021/09/28 00:02:54;;;;;;;23.95;18.70;;;;;;;15.70;100.00;101109.22;5091021;23;20049;-80
2021/09/28 00:05:21;;;;;;;28.88;21.27;;;;;;;15.71;100.00;101105.63;4995012;28;20564;-81
2021/09/28 00:07:48;;;;;;;25.33;18.90;;;;;;;15.64;100.00;101109.44;5004357;28;20485;-80
2021/09/28 00:10:15;;;;;;;25.10;18.55;;;;;;;15.63;100.00;101106.81;5024300;28;20034;-79
2021/09/28 00:12:47;;;;;;;26.15;19.33;;;;;;;15.64;100.00;101116.56;5011221;28;20033;-83
2021/09/28 00:15:23;;;;;;;25.10;19.30;;;;;;;15.60;100.00;101114.88;4992144;28;20076;-80
2021/09/28 00:17:49;;;;;;;24.38;18.05;;;;;;;15.57;100.00;101121.19;4988392;28;20037;-81
2021/09/28 00:20:16;;;;;;;25.98;19.25;;;;;;;15.57;100.00;101121.19;4975933;28;20519;-81
2021/09/28 00:22:43;;;;;;;26.95;19.05;;;;;;;15.54;100.00;101121.28;4986110;28;20581;-80
2021/09/28 00:25:10;;;;;;;25.08;18.42;;;;;;;15.52;100.00;101119.59;4974048;28;20061;-80
2021/09/28 00:27:37;;;;;;;23.58;17.35;;;;;;;15.49;100.00;101125.91;4989416;28;20038;-83
2021/09/28 00:30:04;;;;;;;23.88;18.52;;;;;;;15.46;100.00;101123.34;4972874;28;20046;-82
2021/09/28 00:32:31;;;;;;;27.05;19.95;;;;;;;15.45;100.00;101130.44;4989263;28;20030;-82
2021/09/28 00:34:58;;;;;;;23.08;17.90;;;;;;;15.43;100.00;101131.44;5003601;28;20636;-82
2021/09/28 00:37:25;;;;;;;27.75;20.15;;;;;;;15.42;100.00;101130.56;4965329;28;20049;-82
2021/09/28 00:39:52;;;;;;;27.00;20.15;;;;;;;15.41;100.00;101136.81;4978526;28;20053;-82
2021/09/28 00:42:18;;;;;;;26.95;20.63;;;;;;;15.40;100.00;101136.88;4980936;28;20038;-82
2021/09/28 00:44:45;;;;;;;25.27;18.88;;;;;;;15.35;100.00;101138.81;5013157;28;20068;-82
2021/09/28 00:47:13;;;;;;;30.40;19.92;;;;;;;15.31;100.00;101134.50;4970989;28;20050;-81
2021/09/28 00:49:45;;;;;;;27.05;19.63;;;;;;;15.24;100.00;101133.81;4963217;28;20041;-81
2021/09/28 00:52:13;;;;;;;25.60;18.15;;;;;;;15.20;100.00;101133.03;4970178;28;20057;-81
2021/09/28 00:54:40;;;;;;;28.75;20.02;;;;;;;15.18;100.00;101134.03;4977985;28;20035;-82
2021/09/28 00:57:08;;;;;;;27.10;20.70;;;;;;;15.18;100.00;101137.53;5015754;28;20056;-82
2021/09/28 00:59:37;;;;;;;25.85;19.40;;;;;;;15.18;100.00;101139.34;4968104;28;20554;-81
2021/09/28 01:02:05;;;;;;;25.13;18.20;;;;;;;15.11;100.00;101143.97;4974627;28;20042;-82
2021/09/28 01:04:32;;;;;;;25.50;18.85;;;;;;;15.14;100.00;101145.69;4988052;28;20042;-82
2021/09/28 01:07:00;;;;;;;27.13;19.15;;;;;;;15.09;100.00;101147.63;4974417;28;20747;-82
2021/09/28 01:09:27;;;;;;;24.92;18.63;;;;;;;15.10;100.00;101144.03;4993966;28;20045;-81
2021/09/28 01:11:54;;;;;;;25.58;18.35;;;;;;;15.10;100.00;101147.56;5000962;28;20053;-83
2021/09/28 01:14:20;;;;;;;23.02;17.33;;;;;;;15.10;100.00;101149.34;4984851;28;20104;-81
2021/09/28 01:16:47;;;;;;;25.83;18.85;;;;;;;15.14;100.00;101148.34;4974377;28;20560;-82
2021/09/28 01:19:14;;;;;;;25.73;18.30;;;;;;;15.15;100.00;101152.75;4977203;28;20057;-81
2021/09/28 01:21:42;;;;;;;27.77;20.52;;;;;;;15.17;100.00;101149.13;4985958;28;20054;-83
2021/09/28 01:24:09;;;;;;;25.05;19.13;;;;;;;15.21;100.00;101155.19;5000313;28;20049;-82
2021/09/28 01:26:36;;;;;;;25.60;19.77;;;;;;;15.23;100.00;101147.19;4978273;28;20138;-80
2021/09/28 01:29:05;;;;;;;25.30;18.92;;;;;;;15.25;100.00;101148.88;4972546;28;20097;-82
2021/09/28 01:31:31;;;;;;;30.38;20.35;;;;;;;15.27;100.00;101148.81;4966797;28;20042;-81
2021/09/28 01:33:58;;;;;;;25.77;18.88;;;;;;;15.28;100.00;101145.22;4979695;28;20133;-81
2021/09/28 01:36:25;;;;;;;28.30;20.38;;;;;;;15.31;100.00;101147.81;4996595;28;20410;-81
2021/09/28 01:38:52;;;;;;;29.50;20.40;;;;;;;15.31;100.00;101155.81;4977655;28;20124;-82
2021/09/28 01:41:18;;;;;;;26.77;20.48;;;;;;;15.29;100.00;101155.81;5003685;28;20043;-81
2021/09/28 01:43:45;;;;;;;26.00;19.10;;;;;;;15.28;100.00;101155.88;4994357;28;20495;-81
2021/09/28 01:46:11;;;;;;;27.55;19.00;;;;;;;15.27;100.00;101154.16;4974430;28;20046;-81
2021/09/28 01:48:55;;;;;;;26.30;19.30;;;;;;;15.26;100.00;101147.09;4977208;28;20042;-81
2021/09/28 01:51:22;;;;;;;27.45;19.35;;;;;;;15.27;100.00;101155.00;5011775;28;20041;-82
2021/09/28 01:53:49;;;;;;;27.60;19.08;;;;;;;15.28;100.00;101154.09;4996005;28;20030;-82
2021/09/28 01:56:19;;;;;;;25.38;18.95;;;;;;;15.25;100.00;101148.88;4991291;28;20499;-82
2021/09/28 01:58:47;;;;;;;24.60;18.48;;;;;;;15.25;100.00;101142.69;4987904;28;20052;-82
2021/09/28 02:01:14;;;;;;;27.55;20.85;;;;;;;15.30;100.00;101149.63;4971959;28;20068;-82
2021/09/28 02:03:41;;;;;;;26.45;19.52;;;;;;;15.25;100.00;101150.66;4985885;28;20494;-82
2021/09/28 02:06:07;;;;;;;25.95;18.88;;;;;;;15.23;100.00;101148.06;4990713;28;20049;-81
2021/09/28 02:08:34;;;;;;;27.92;20.60;;;;;;;15.30;100.00;101154.03;4995086;28;20041;-81
2021/09/28 02:11:01;;;;;;;24.58;18.58;;;;;;;15.27;100.00;101159.47;4993683;28;20044;-82
2021/09/28 02:13:27;;;;;;;27.75;19.60;;;;;;;15.25;100.00;101156.88;4978088;28;20046;-81
2021/09/28 02:15:54;;;;;;;23.73;18.13;;;;;;;15.23;100.00;101150.72;4985576;28;20522;-81
2021/09/28 02:18:21;;;;;;;26.83;19.27;;;;;;;15.37;100.00;101155.59;4974969;28;20046;-81
2021/09/28 02:20:47;;;;;;;25.73;19.23;;;;;;;15.29;100.00;101146.97;4976105;28;20626;-81
2021/09/28 02:23:14;;;;;;;27.38;20.08;;;;;;;15.27;100.00;101162.13;4982125;28;20494;-81
2021/09/28 02:25:41;;;;;;;25.85;19.05;;;;;;;15.23;100.00;101156.06;4976652;28;20046;-81
2021/09/28 02:28:07;;;;;;;27.15;19.60;;;;;;;15.29;100.00;101152.28;4985581;28;20041;-83
2021/09/28 02:30:34;;;;;;;25.63;18.67;;;;;;;15.25;100.00;101150.66;4973235;28;20112;-82
2021/09/28 02:33:01;;;;;;;26.25;19.48;;;;;;;15.31;100.00;101153.16;4986883;28;20474;-81
2021/09/28 02:35:27;;;;;;;25.80;18.52;;;;;;;15.23;100.00;101168.50;4998276;28;20042;-81
2021/09/28 02:37:56;;;;;;;24.90;18.85;;;;;;;15.17;100.00;101157.09;5000960;28;20099;-81
2021/09/28 02:40:23;;;;;;;31.08;20.90;;;;;;;15.37;100.00;101161.78;4976029;28;20088;-81
2021/09/28 02:42:50;;;;;;;25.33;18.65;;;;;;;15.21;100.00;101161.38;4973409;28;20069;-82
2021/09/28 02:45:16;;;;;;;25.73;18.83;;;;;;;15.17;100.00;101161.56;4967287;28;20038;-82
2021/09/28 02:47:44;;;;;;;25.75;18.85;;;;;;;15.19;100.00;101157.03;4942252;28;20046;-83
2021/09/28 02:50:11;;;;;;;25.75;18.17;;;;;;;15.10;100.00;101158.22;4975699;28;20046;-82
2021/09/28 02:52:38;;;;;;;26.00;19.35;;;;;;;15.09;100.00;101153.81;4957902;28;20054;-82
2021/09/28 02:55:06;;;;;;;24.45;18.13;;;;;;;15.10;100.00;101154.69;4988134;28;20048;-82
2021/09/28 02:57:33;;;;;;;24.00;17.73;;;;;;;15.07;100.00;101153.00;4960395;28;20042;-82
2021/09/28 02:59:59;;;;;;;21.52;16.60;;;;;;;15.06;100.00;101145.06;4982100;28;20447;-81
2021/09/28 03:02:26;;;;;;;27.27;20.55;;;;;;;15.09;100.00;101148.50;4967272;28;20127;-82
2021/09/28 03:04:53;;;;;;;23.15;17.13;;;;;;;15.10;100.00;101144.03;4969046;28;20057;-82
2021/09/28 03:07:19;;;;;;;26.10;18.05;;;;;;;15.09;100.00;101144.97;4991191;28;20045;-80
2021/09/28 03:09:46;;;;;;;27.67;18.48;;;;;;;15.08;100.00;101144.09;4981380;28;20046;-82
2021/09/28 03:12:13;;;;;;;23.80;17.75;;;;;;;15.06;100.00;101135.28;4980286;28;20046;-82
2021/09/28 03:14:40;;;;;;;23.88;17.40;;;;;;;15.05;100.00;101138.88;4954102;28;20085;-83
2021/09/28 03:17:07;;;;;;;23.70;16.52;;;;;;;15.05;100.00;101138.88;4959165;28;20046;-82
2021/09/28 03:19:33;;;;;;;24.25;17.58;;;;;;;15.02;100.00;101143.41;4993950;28;20392;-82
2021/09/28 03:22:00;;;;;;;20.83;15.68;;;;;;;15.02;100.00;101143.41;5002092;28;20045;-82
2021/09/28 03:24:27;;;;;;;20.00;15.80;;;;;;;14.99;100.00;101147.03;4978529;28;20084;-82
2021/09/28 03:26:53;;;;;;;25.05;17.15;;;;;;;15.02;100.00;101152.25;4999708;28;20042;-81
2021/09/28 03:29:20;;;;;;;24.02;17.85;;;;;;;15.06;100.00;101161.91;4974246;28;20404;-81
2021/09/28 03:31:47;;;;;;;24.25;17.85;;;;;;;15.06;100.00;101174.34;4977907;28;20099;-82
2021/09/28 03:34:13;;;;;;;24.23;17.50;;;;;;;15.06;100.00;101172.53;4978492;28;20042;-83
2021/09/28 03:36:40;;;;;;;26.35;20.08;;;;;;;15.13;100.00;101175.84;4977162;28;20164;-82
2021/09/28 03:39:07;;;;;;;24.92;17.88;;;;;;;15.13;100.00;101174.09;4977315;28;20047;-82
2021/09/28 03:41:34;;;;;;;31.70;21.40;;;;;;;15.14;100.00;101181.16;4972033;28;20096;-82
2021/09/28 03:44:00;;;;;;;27.02;18.92;;;;;;;15.20;100.00;101185.41;4995430;28;20042;-82
2021/09/28 03:46:29;;;;;;;28.83;20.23;;;;;;;15.23;100.00;101187.13;4995497;28;20046;-82
2021/09/28 03:48:59;;;;;;;26.42;18.02;;;;;;;15.24;100.00;101197.72;4996773;28;20057;-81
2021/09/28 03:51:25;;;;;;;27.92;20.17;;;;;;;15.26;100.00;101195.00;5002472;28;20051;-82
2021/09/28 03:53:53;;;;;;;26.20;18.98;;;;;;;15.31;100.00;101195.75;4991235;28;20062;-82
2021/09/28 03:56:20;;;;;;;30.63;20.52;;;;;;;15.40;100.00;101203.44;4970570;28;20609;-82
2021/09/28 03:58:47;;;;;;;28.52;17.92;;;;;;;15.39;100.00;101202.56;4963093;28;20057;-81
2021/09/28 04:01:13;;;;;;;28.15;18.05;;;;;;;15.41;100.00;101191.84;4978083;28;20053;-82
2021/09/28 04:03:41;;;;;;;32.50;21.17;;;;;;;15.44;100.00;101199.72;4989043;28;20049;-82
2021/09/28 04:06:11;;;;;;;27.52;18.60;;;;;;;15.44;100.00;101197.94;4985664;28;20037;-83
2021/09/28 04:08:38;;;;;;;25.73;19.00;;;;;;;15.45;100.00;101205.00;4984833;28;20617;-83
2021/09/28 04:11:05;;;;;;;27.02;18.00;;;;;;;15.45;100.00;101213.00;4981661;28;20137;-81
2021/09/28 04:13:32;;;;;;;26.27;18.00;;;;;;;15.47;100.00;101205.84;4972633;28;20511;-81
2021/09/28 04:16:00;;;;;;;26.98;18.02;;;;;;;15.49;100.00;101200.47;4994953;28;20046;-82
2021/09/28 04:18:27;;;;;;;24.23;17.08;;;;;;;15.48;100.00;101204.94;4989729;28;20100;-81
2021/09/28 04:20:55;;;;;;;23.77;16.88;;;;;;;15.50;100.00;101210.19;4971000;28;20046;-81
2021/09/28 04:23:22;;;;;;;27.50;19.17;;;;;;;15.55;100.00;101216.22;4977671;28;20049;-82
2021/09/28 04:25:49;;;;;;;32.03;19.98;;;;;;;15.52;100.00;101215.47;5006766;28;20516;-81
2021/09/28 04:28:15;;;;;;;26.65;16.95;;;;;;;15.55;100.00;101218.91;4976891;28;20507;-81
2021/09/28 04:30:42;;;;;;;25.60;17.13;;;;;;;15.55;100.00;101221.56;4998239;28;20411;-82
2021/09/28 04:33:09;;;;;;;21.80;15.80;;;;;;;15.56;100.00;101217.13;4975799;28;20034;-81
2021/09/28 04:35:36;;;;;;;24.88;17.80;;;;;;;15.57;100.00;101217.06;4977825;28;20072;-81
2021/09/28 04:38:02;;;;;;;25.90;17.05;;;;;;;15.57;100.00;101229.53;5000619;28;20041;-81
2021/09/28 04:40:29;;;;;;;22.40;15.65;;;;;;;15.57;100.00;101230.41;4972656;28;20053;-82
2021/09/28 04:42:56;;;;;;;23.05;16.58;;;;;;;15.59;100.00;101238.31;4960833;28;20053;-81
2021/09/28 04:45:22;;;;;;;24.60;15.75;;;;;;;15.59;100.00;101241.00;4982624;28;20053;-82
2021/09/28 04:47:49;;;;;;;21.50;16.10;;;;;;;15.62;100.00;101241.78;4973812;28;20038;-82
2021/09/28 04:50:15;;;;;;;25.92;15.80;;;;;;;15.71;100.00;101253.94;4990537;28;20041;-81
2021/09/28 04:52:42;;;;;;;21.85;15.88;;;;;;;15.85;100.00;101253.50;4976412;28;20100;-81
2021/09/28 04:55:09;;;;;;;20.25;15.10;;;;;;;15.68;100.00;101248.72;4999596;28;20041;-82
2021/09/28 04:57:36;;;;;;;20.10;14.38;;;;;;;15.68;100.00;101254.03;4982986;28;20050;-82
2021/09/28 05:00:04;;;;;;;19.58;13.20;;;;;;;15.70;100.00;101252.19;4994103;28;20068;-82
2021/09/28 05:02:31;;;;;;;17.80;12.90;;;;;;;15.75;100.00;101256.47;4966633;28;20073;-79
2021/09/28 05:05:04;;;;;;;19.23;12.45;;;;;;;15.74;100.00;101262.72;4989845;28;20050;-82
2021/09/28 05:07:31;;;;;;;17.33;12.32;;;;;;;15.75;100.00;101263.59;5004186;28;20042;-81
2021/09/28 05:09:58;;;;;;;15.43;11.20;;;;;;;15.86;100.00;101265.91;4976997;28;20133;-83
2021/09/28 05:12:25;;;;;;;14.65;10.93;;;;;;;15.88;100.00;101256.06;4976690;28;20042;-81
2021/09/28 05:14:51;;;;;;;17.05;11.23;;;;;;;15.71;100.00;101267.25;4995670;28;20049;-83
2021/09/28 05:17:18;;;;;;;16.05;9.88;;;;;;;15.73;100.00;101268.97;4991050;28;20054;-82
2021/09/28 05:19:44;;;;;;;14.95;10.07;;;;;;;15.64;100.00;101263.94;4976446;28;20449;-82
2021/09/28 05:22:11;;;;;;;13.43;9.48;;;;;;;15.62;100.00;101268.41;4975804;28;20045;-82
2021/09/28 05:24:38;;;;;;;10.98;8.63;;;;;;;15.59;100.00;101268.50;4973467;28;20078;-83
2021/09/28 05:27:05;;;;;;;11.88;8.10;;;;;;;15.56;100.00;101275.72;4981717;28;20046;-82
2021/09/28 05:29:32;;;;;;;11.38;7.80;;;;;;;15.62;100.00;101273.75;4988768;28;20154;-83
2021/09/28 05:31:59;;;;;;;12.10;8.10;;;;;;;15.63;100.00;101282.59;4963753;28;20489;-83
2021/09/28 05:34:26;;;;;;;10.43;6.95;;;;;;;15.60;100.00;101288.00;4974606;28;20042;-82
2021/09/28 05:36:52;;;;;;;13.88;7.85;;;;;;;15.64;100.00;101290.56;4992196;28;20038;-83
2021/09/28 05:39:20;;;;;;;9.68;6.65;;;;;;;15.58;100.00;101292.53;4992571;28;20042;-81
2021/09/28 05:41:46;;;;;;;10.93;6.63;;;;;;;15.65;100.00;101299.44;4976727;28;20103;-81
2021/09/28 05:44:13;;;;;;;8.82;6.20;;;;;;;15.71;100.00;101302.75;4977308;28;20061;-82
2021/09/28 05:46:40;;;;;;;7.32;5.93;;;;;;;15.61;100.00;101309.28;4993608;28;20084;-83
2021/09/28 05:49:07;;;;;;;6.80;5.22;;;;;;;15.64;100.00;101308.34;4975930;28;20060;-82
2021/09/28 05:51:35;;;;;;;7.43;5.65;;;;;;;15.61;100.00;101311.09;4995356;28;20072;-83
2021/09/28 05:54:02;;;;;;;7.40;5.45;;;;;;;15.73;100.00;101311.59;4976277;28;20042;-83
2021/09/28 05:56:29;;;;;;;7.55;5.28;;;;;;;15.68;100.00;101315.31;4977966;28;20049;-81
2021/09/28 05:58:55;;;;;;;6.63;4.80;;;;;;;15.66;100.00;101322.50;5009562;28;20103;-82
2021/09/28 06:01:22;;;;;;;10.45;5.20;;;;;;;15.73;100.00;101319.59;4959310;28;20042;-84
2021/09/28 06:03:49;;;;;;;8.10;4.10;;;;;;;15.75;100.00;101327.53;5002592;23;20048;-83
2021/09/28 06:06:16;;;;;;;5.32;3.85;;;;;;;15.67;100.00;101340.22;5008360;28;20117;-84
2021/09/28 06:08:42;;;;;;;6.53;3.75;;;;;;;15.65;100.00;101342.06;5036383;28;20045;-84
2021/09/28 06:11:09;;;;;;;5.57;3.65;;;;;;;15.57;100.00;101344.91;5055871;28;20108;-84
2021/09/28 06:13:36;;;;;;;6.45;3.30;;;;;;;15.55;100.00;101354.72;5018305;28;20041;-84
2021/09/28 06:16:02;;;;;;;5.75;3.60;;;;;;;15.58;100.00;101351.97;5015275;28;20049;-84
2021/09/28 06:18:29;;;;;;;5.10;3.00;;;;;;;15.74;100.00;101363.97;4999457;28;20041;-85
2021/09/28 06:20:56;;;;;;;4.10;2.70;;;;;;;15.69;100.00;101365.00;5026583;28;20143;-83
2021/09/28 06:23:23;;;;;;;4.03;2.58;;;;;;;15.59;100.00;101374.16;5018058;28;20045;-84
2021/09/28 06:25:49;;;;;;;9.45;3.25;;;;;;;15.49;100.00;101373.56;5038917;28;20049;-86
2021/09/28 06:28:18;;;;;;;4.68;2.70;;;;;;;15.52;100.00;101378.78;5033606;28;20041;-83
2021/09/28 06:30:45;;;;;;;7.03;2.65;;;;;;;15.53;100.00;101377.00;5020442;28;20045;-84
2021/09/28 06:33:12;;;;;;;4.75;2.40;;;;;;;15.53;100.00;101375.22;5016405;28;20044;-84
2021/09/28 06:35:39;;;;;;;4.28;2.30;;;;;;;15.52;100.00;101378.78;5035677;28;20126;-86
2021/09/28 06:38:06;;;;;;;5.65;2.47;;;;;;;15.51;100.00;101377.06;5017398;28;20042;-84
2021/09/28 06:40:34;;;;;;;7.72;3.65;;;;;;;15.53;100.00;101385.84;5021054;28;20055;-83
2021/09/28 06:43:01;;;;;;;3.90;2.47;;;;;;;15.57;100.00;101384.00;5038072;28;20460;-82
2021/09/28 06:45:29;;;;;;;3.85;2.65;;;;;;;15.53;100.00;101390.31;4997664;28;20038;-83
2021/09/28 06:47:56;;;;;;;5.57;2.72;;;;;;;15.53;100.00;101406.28;5028255;28;20084;-84
2021/09/28 06:50:23;;;;;;;3.65;2.38;;;;;;;15.56;100.00;101401.78;5025203;28;20046;-85
2021/09/28 06:52:49;;;;;;;4.30;2.38;;;;;;;15.58;100.00;101405.25;5022690;28;20091;-84
2021/09/28 06:55:16;;;;;;;2.92;2.25;;;;;;;15.52;100.00;101409.88;5002396;28;20033;-84
2021/09/28 06:57:43;;;;;;;4.85;2.75;;;;;;;15.55;100.00;101405.31;5019525;28;20048;-84
2021/09/28 07:00:10;;;;;;;5.75;2.88;;;;;;;15.47;100.00;101404.69;5020261;28;20056;-84
2021/09/28 07:02:37;;;;;;;5.03;2.33;;;;;;;15.46;100.00;101406.47;5010334;28;20634;-83
2021/09/28 07:05:12;;;;;;;7.13;2.30;;;;;;;15.47;100.00;101408.25;5009698;28;20153;-80
2021/09/28 07:07:39;;;;;;;5.00;2.28;;;;;;;15.59;100.00;101412.31;5041549;28;20037;-83
2021/09/28 07:10:07;;;;;;;2.75;1.60;;;;;;;15.52;100.00;101415.19;5040435;28;20657;-84
2021/09/28 07:12:35;;;;;;;4.40;2.22;;;;;;;15.53;100.00;101414.28;5027836;28;20428;-85
2021/09/28 07:15:04;;;;;;;3.22;2.03;;;;;;;15.54;100.00;101422.22;5020826;28;20044;-83
2021/09/28 07:17:31;;;;;;;3.22;1.80;;;;;;;15.53;100.00;101423.16;5053401;28;20041;-85
2021/09/28 07:19:58;;;;;;;6.97;2.70;;;;;;;15.66;100.00;101429.03;5022809;28;20394;-83
2021/09/28 07:22:26;;;;;;;6.78;2.60;;;;;;;15.49;100.00;101430.38;5032118;28;20036;-86
2021/09/28 07:24:55;;;;;;;7.35;2.25;;;;;;;15.59;100.00;101427.44;5021087;28;20587;-85
2021/09/28 07:27:27;;;;;;;3.95;1.63;;;;;;;15.59;100.00;101435.41;5007522;28;20087;-83
2021/09/28 07:29:55;;;;;;;6.95;1.88;;;;;;;15.65;100.00;101432.63;5033131;28;20049;-85
2021/09/28 07:32:23;;;;;;;6.90;2.65;;;;;;;15.66;100.00;101440.56;5019952;28;20040;-84
2021/09/28 07:34:50;;;;;;;3.67;1.70;;;;;;;15.62;100.00;101446.00;5035580;28;20033;-82
2021/09/28 07:37:16;;;;;;;6.72;2.20;;;;;;;15.64;100.00;101454.84;5019625;28;20056;-82
2021/09/28 07:39:49;;;;;;;4.88;2.17;;;;;;;15.75;100.00;101460.72;5031720;28;20395;-83
2021/09/28 07:42:16;;;;;;;6.15;1.90;;;;;;;15.65;100.00;101454.81;5054356;28;20507;-82
2021/09/28 07:44:43;;;;;;;4.75;1.92;;;;;;;15.58;100.00;101458.53;5009177;28;20407;-84
2021/09/28 07:47:09;;;;;;;4.25;1.95;;;;;;;15.62;100.00;101462.00;5002211;28;20055;-82
2021/09/28 07:49:37;;;;;;;3.75;2.20;;;;;;;15.67;100.00;101452.97;5020165;28;20049;-83
2021/09/28 07:52:03;;;;;;;6.38;2.28;;;;;;;15.66;99.96;101461.88;5018168;28;20060;-83
2021/09/28 07:54:30;;;;;;;6.45;1.80;;;;;;;15.51;100.00;101454.28;5035769;28;20559;-83
2021/09/28 07:56:59;;;;;;;7.60;2.33;;;;;;;15.45;99.17;101465.09;5001802;28;20559;-83
2021/09/28 07:59:25;;;;;;;8.98;2.05;;;;;;;15.48;100.00;101473.03;5019388;28;20664;-81
2021/09/28 08:01:52;;;;;;;10.80;1.90;;;;;;;15.38;97.41;101468.84;5014634;28;20042;-80
2021/09/28 08:04:20;;;;;;;3.65;1.88;;;;;;;15.34;97.66;101468.06;5011116;28;20132;-82
2021/09/28 08:06:48;;;;;;;4.70;1.70;;;;;;;15.40;95.74;101469.69;5036685;28;20037;-81
2021/09/28 08:09:15;;;;;;;5.45;1.48;;;;;;;15.40;96.15;101485.66;5037059;28;20074;-83
2021/09/28 08:11:42;;;;;;;6.35;1.65;;;;;;;15.33;99.56;101490.28;5032711;28;20053;-81
2021/09/28 08:14:09;;;;;;;4.70;2.00;;;;;;;15.17;99.67;101505.78;5017107;28;20037;-82
2021/09/28 08:16:36;;;;;;;6.50;1.73;;;;;;;14.96;100.00;101506.31;5031067;28;20042;-83
2021/09/28 08:19:03;;;;;;;3.90;1.70;;;;;;;15.00;100.00;101508.00;5028206;28;20037;-80
2021/09/28 08:21:30;;;;;;;4.13;1.30;;;;;;;14.97;100.00;101504.56;5001451;28;20087;-80
2021/09/28 08:23:58;;;;;;;5.95;1.80;;;;;;;15.08;100.00;101508.69;5013277;28;20040;-83
2021/09/28 08:29:12;;;;;;;3.70;1.83;;;;;;;15.15;100.00;101507.63;5003340;28;20052;-82
2021/09/28 08:31:43;;;;;;;5.90;1.83;;;;;;;15.15;100.00;101509.41;5003925;28;20128;-80
2021/09/28 08:34:12;;;;;;;7.30;4.63;;;;;;;15.14;100.00;101510.31;5014191;28;20041;-81
2021/09/28 08:36:38;;;;;;;7.82;4.10;;;;;;;15.21;100.00;101514.53;5017260;28;20067;-80
2021/09/28 08:39:08;;;;;;;25.67;22.38;;;;;;;15.04;100.00;101512.31;5015454;28;20111;-80
2021/09/28 08:41:38;;;;;;;7.32;4.78;;;;;;;15.00;100.00;101523.09;5001403;28;20044;-80
2021/09/28 08:44:05;;;;;;;8.68;4.95;;;;;;;15.08;100.00;101511.34;5000636;28;20048;-80
2021/09/28 08:46:33;;;;;;;12.35;5.95;;;;;;;15.24;100.00;101513.63;5017620;28;20098;-80
2021/09/28 08:49:04;;;;;;;7.53;3.78;;;;;;;15.31;100.00;101512.53;5015942;28;20049;-81
2021/09/28 08:51:34;;;;;;;7.18;3.67;;;;;;;15.44;100.00;101516.63;5001123;28;20044;-79
2021/09/28 08:54:01;;;;;;;5.05;2.78;;;;;;;15.42;100.00;101518.44;5015626;28;20049;-82
2021/09/28 08:56:28;;;;;;;6.43;2.97;;;;;;;15.58;100.00;101518.91;5027000;28;20478;-79
2021/09/28 08:59:03;;;;;;;9.00;4.18;;;;;;;15.58;100.00;101521.56;5019789;28;20044;-82
2021/09/28 09:01:30;;;;;;;28.45;22.40;;;;;;;15.62;100.00;101521.47;5039415;28;20445;-80
2021/09/28 09:04:18;;;;;;;8.00;5.05;;;;;;;15.64;100.00;101529.44;5014753;28;20095;-83
2021/09/28 09:06:45;;;;;;;14.90;10.20;;;;;;;15.76;100.00;101521.09;5002796;28;20047;-81
2021/09/28 09:09:13;;;;;;;23.90;12.05;;;;;;;15.90;100.00;101513.59;5015971;28;20033;-83
2021/09/28 09:11:42;;;;;;;25.63;14.10;;;;;;;16.08;100.00;101521.97;4998474;28;20463;-81
2021/09/28 09:14:18;;;;;;;9.73;3.13;;;;;;;16.17;100.00;101506.56;4999716;28;20049;-81
2021/09/28 09:16:47;;;;;;;10.18;5.75;;;;;;;16.15;98.55;101505.75;5003314;28;20052;-82
2021/09/28 09:19:14;;;;;;;5.22;1.70;;;;;;;16.20;98.49;101519.78;5001888;28;20064;-80
2021/09/28 09:21:59;;;;;;;4.32;1.70;;;;;;;16.27;98.30;101510.69;5035893;28;20049;-81
2021/09/28 09:24:51;;;;;;;5.45;1.70;;;;;;;16.37;94.06;101521.94;5018762;28;20044;-82
2021/09/28 09:27:38;;;;;;;4.10;1.70;;;;;;;16.39;98.42;101516.56;5027396;28;20059;-81
2021/09/28 09:30:11;;;;;;;5.10;2.35;;;;;;;16.37;92.05;101518.41;5033507;28;20080;-80
2021/09/28 09:33:04;;;;;;;3.55;1.70;;;;;;;16.28;91.93;101503.56;5016663;28;20634;-82
2021/09/28 09:35:35;;;;;;;3.72;1.90;;;;;;;16.31;92.42;101511.47;5015518;28;20049;-82
2021/09/28 09:38:07;;;;;;;4.20;1.77;;;;;;;16.25;93.77;101517.88;4999374;28;20056;-82
2021/09/28 09:40:41;;;;;;;4.10;1.65;;;;;;;16.24;94.76;101524.13;5046969;28;20512;-82
2021/09/28 09:43:08;;;;;;;8.27;2.40;;;;;;;16.24;93.75;101532.13;5015813;28;20175;-82
2021/09/28 09:45:35;;;;;;;6.30;2.20;;;;;;;16.24;95.17;101537.47;5018719;28;20132;-83
2021/09/28 09:48:25;;;;;;;4.43;1.85;;;;;;;16.24;91.98;101534.78;5015932;28;20056;-82
2021/09/28 09:50:56;;;;;;;3.92;1.63;;;;;;;16.29;92.13;101538.16;5015739;28;20072;-82
2021/09/28 09:53:23;;;;;;;2.72;1.42;;;;;;;16.29;94.44;101547.97;4997344;28;20103;-82
2021/09/28 09:55:49;;;;;;;4.63;1.80;;;;;;;16.28;94.71;101540.88;5017183;28;20040;-82
2021/09/28 09:58:16;;;;;;;7.00;2.00;;;;;;;16.25;90.62;101543.66;5039103;28;20063;-81
2021/09/28 10:00:43;;;;;;;5.72;1.65;;;;;;;16.23;92.09;101543.72;5021108;28;20045;-82
2021/09/28 10:03:10;;;;;;;4.82;1.85;;;;;;;16.14;90.38;101553.75;5031578;28;20403;-82
2021/09/28 10:05:37;;;;;;;6.38;2.47;;;;;;;16.05;90.64;101555.75;5017057;28;20040;-83
2021/09/28 10:08:08;;;;;;;4.93;1.65;;;;;;;16.06;94.19;101559.34;4999132;28;20053;-83
2021/09/28 10:10:35;;;;;;;2.65;1.40;;;;;;;15.98;94.46;101554.22;5014524;28;20059;-82
2021/09/28 10:13:03;;;;;;;6.07;1.60;;;;;;;16.02;96.93;101544.31;5010475;28;20049;-83
2021/09/28 10:15:31;;;;;;;4.53;1.70;;;;;;;16.05;99.36;101555.75;5002233;28;20045;-84
2021/09/28 10:17:58;;;;;;;4.68;1.70;;;;;;;16.18;95.85;101553.63;5025610;28;20075;-81
2021/09/28 10:20:29;;;;;;;4.72;1.77;;;;;;;16.13;96.62;101552.88;5001114;28;20044;-82
2021/09/28 10:23:01;;;;;;;4.65;3.53;;;;;;;16.07;94.73;101546.88;5023368;28;20095;-82
2021/09/28 10:25:36;;;;;;;4.20;1.80;;;;;;;16.04;97.76;101539.81;5027775;28;20040;-82
2021/09/28 10:28:03;;;;;;;4.85;1.80;;;;;;;16.12;96.56;101545.81;5006311;28;20441;-82
2021/09/28 10:30:35;;;;;;;4.47;2.58;;;;;;;16.17;98.65;101546.56;5031797;28;20045;-81
2021/09/28 10:33:11;;;;;;;7.17;2.50;;;;;;;16.24;98.21;101540.13;5033532;28;20405;-82
2021/09/28 10:36:08;;;;;;;6.55;3.33;;;;;;;16.27;96.01;101531.16;5027256;28;20825;-83
2021/09/28 10:38:59;;;;;;;4.88;2.72;;;;;;;16.37;96.99;101529.06;5013633;28;20518;-83
2021/09/28 10:41:28;;;;;;;8.80;2.97;;;;;;;16.44;93.46;101538.63;5032734;28;20045;-83
2021/09/28 10:44:24;;;;;;;3.78;2.05;;;;;;;16.47;93.21;101536.72;5038950;28;20041;-83
2021/09/28 10:46:50;;;;;;;4.65;2.70;;;;;;;16.64;95.28;101538.00;5035467;28;20421;-83
2021/09/28 10:49:22;;;;;;;9.13;2.90;;;;;;;16.66;94.13;101537.06;5018072;28;20444;-83
2021/09/28 10:51:49;;;;;;;4.85;2.05;;;;;;;16.74;94.48;101529.72;5034188;28;20040;-83
2021/09/28 10:54:16;;;;;;;4.30;2.08;;;;;;;16.62;87.97;101530.06;5015367;28;20099;-83
2021/09/28 10:56:52;;;;;;;4.25;2.17;;;;;;;16.72;89.56;101525.31;5016077;28;20040;-82
2021/09/28 10:59:18;;;;;;;5.57;2.17;;;;;;;16.68;90.78;101524.53;5018401;28;20695;-84
2021/09/28 11:02:08;;;;;;;3.55;1.63;;;;;;;16.79;89.97;101525.09;5003581;28;20091;-83
2021/09/28 11:04:35;;;;;;;4.15;2.35;;;;;;;16.84;88.58;101533.81;5013777;28;20524;-82
2021/09/28 11:07:09;;;;;;;4.10;2.72;;;;;;;17.13;89.11;101531.97;5033794;28;20045;-83
2021/09/28 11:09:43;;;;;;;;;;;;;;;17.18;84.81;101530.03;5020981;28;20108;-82
2021/09/28 11:12:10;;;;;;;7.20;3.38;;;;;;;17.26;87.05;101537.78;5017128;28;20800;-83
2021/09/28 11:14:38;;;;;;;7.32;3.40;;;;;;;17.10;84.98;101538.31;5034872;28;20071;-83
2021/09/28 11:17:11;;;;;;;8.48;2.50;;;;;;;17.12;86.43;101532.91;5017248;28;20025;-83
2021/09/28 11:19:39;;;;;;;8.10;2.30;;;;;;;17.15;85.08;101535.47;5015778;28;20049;-83